Los datos mostrados corresponden al resumen diario obtenido de los registros semihorarios entre las 0:00 y las 24:00 h, en horario solar.
| Estación | Fecha | V Km/h | DV | Vx Km/h | T ºC | Tn ºC | Tx ºC | H frío | HR % | Rad MJ/m2 día | H sol | P mm | ETo mm |
|---|---|---|---|---|---|---|---|---|---|---|---|---|---|
| Almoradí | 06/05/2026 | 3.97 | NE | 16.58 | 18.51 | 13.53 | 23.52 | 0 | 74.7 | 22.12 | 11.31 | 0 | 3.85 |
| Elx | 06/05/2026 | 4.74 | N | 22.77 | 19.34 | 14.76 | 23.38 | 0 | 66.69 | 25.69 | 0 | 0 | 4.48 |
| Callosa d'En Sarrià | 05/05/2026 | 2.4 | NE | 15.1 | 17.44 | 12.93 | 22.45 | 0 | 74 | 19.77 | 11.47 | 0 | 3.42 |
| Callosa d'En Sarrià (malla) | 05/05/2026 | 1.44 | E | 10.94 | 18.13 | 12.86 | 24.3 | 0 | 60.89 | 15.61 | 10.68 | 0 | 2.91 |
| Catral | 06/05/2026 | 3.8 | NE | 20.32 | 17.81 | 10.88 | 23.47 | 0 | 74.8 | 22.12 | 11.57 | 0 | 3.8 |
| Altea | 06/05/2026 | 5.65 | NE | 21.98 | 18.1 | 14.21 | 22.68 | 0 | 65.07 | 19.74 | 11.67 | 0 | 3.83 |
| Planes | 06/05/2026 | 1.44 | SE | 12.42 | 14.27 | 9.64 | 20.2 | 0 | 84 | 14.82 | 10.99 | 0 | 2.49 |
| Villena | 06/05/2026 | 5.62 | SO | 21.52 | 15.17 | 9.8 | 20.86 | 0 | 76.9 | 22.18 | 11.47 | 1.85 | 3.83 |
| Camp de Mirra | 06/05/2026 | 6.75 | NE | 19.97 | 13.63 | 9.84 | 18.92 | 0 | 83.3 | 15.95 | 9.58 | 15.72 | 2.92 |
| Agost | 06/05/2026 | 4.21 | E | 19.9 | 16.42 | 9.43 | 22.13 | 0 | 43.99 | 24.02 | 11.67 | 0 | 4.31 |
| Orihuela - La Murada | 06/05/2026 | 4.8 | E | 19.9 | 17.47 | 10.91 | 23.55 | 0 | 67.37 | 22.58 | 11.86 | 0 | 4.02 |
| Villajoyosa | 06/05/2026 | 5.45 | NE | 21.84 | 18.06 | 13.02 | 22.01 | 0 | 60.77 | 21.66 | 11.57 | 0 | 4.07 |
| Ondara | 06/05/2026 | 3.71 | NE | 15.56 | 17.26 | 12.25 | 20.56 | 0 | 73.4 | 13.32 | 10.77 | 0 | 2.59 |
| Dénia | 06/05/2026 | 3.75 | N | 16.83 | 16.46 | 10.65 | 20.64 | 0 | 72.8 | 13.93 | 11 | 0 | 2.67 |
| Pinoso | 06/05/2026 | 5.31 | NE | 17.39 | 13.8 | 9.87 | 19.16 | 0 | 78.9 | 16.75 | 11.47 | 4.78 | 3.06 |
| Monforte del Cid | 06/05/2026 | 5.8 | E | 18.87 | 17.05 | 10.79 | 22.46 | 0 | 64.75 | 21.12 | 11.88 | 0 | 3.96 |
| Crevillent | 06/05/2026 | 5.34 | E | 21.84 | 18.74 | 13.51 | 23.51 | 0 | 67.25 | 21.54 | 11.66 | 0 | 4.03 |
| Vall d'Uixó | 06/05/2026 | 3.24 | SO | 12.56 | 16.51 | 10.46 | 22.7 | 0 | 65.62 | 26.72 | 12.53 | 0 | 4.25 |
| Vila-real | 06/05/2026 | 7.05 | N | 22.11 | 16.98 | 12.3 | 21.94 | 0 | 66.18 | 23.41 | 12.17 | 0 | 4.25 |
| Onda | 06/05/2026 | 5.39 | NO | 20.29 | 15.48 | 10.43 | 20.45 | 0 | 72 | 21.05 | 12.32 | 0 | 3.6 |
| San Rafael del Río | 06/05/2026 | 4.75 | O | 16.26 | 15.13 | 8.48 | 21.1 | 0 | 68.61 | 24.33 | 12.23 | 0 | 3.98 |
| Castelló de la Plana | 06/05/2026 | 3.09 | SO | 11.96 | 15.58 | 10.35 | 21.94 | 0 | 73.5 | 21.64 | 12.4 | 0.2 | 3.52 |
| Ribera de Cabanes | 06/05/2026 | 3.57 | SO | 13.86 | 16.47 | 10.99 | 21.76 | 0 | 56.79 | 26.83 | 12.19 | 0 | 4.25 |
| Nules | 06/05/2026 | 4.1 | E | 15.13 | 16.18 | 10.47 | 22.1 | 0 | 70.5 | 25.13 | 12.64 | 0 | 4.05 |
| Segorbe | 06/05/2026 | 2.44 | SE | 14.71 | 13.63 | 5.19 | 21.89 | 3 | 73.7 | 19.18 | 12.46 | 0.2 | 3.16 |
| Pedralba | 06/05/2026 | 3.15 | S | 18.13 | 15.84 | 9.13 | 22.41 | 0 | 68.27 | 25.97 | 12.42 | 0.2 | 4.11 |
| Benavites | 06/05/2026 | 3.61 | E | 17.36 | 15.74 | 8.74 | 20.73 | 0 | 72.3 | 28.54 | 12.67 | 0 | 4.22 |
| Moncada | 06/05/2026 | 5.94 | N | 24.72 | 16.5 | 10.08 | 22.48 | 0 | 68.66 | 25.67 | 0 | 0 | 4.32 |
| Carcaixent | 06/05/2026 | 4.45 | N | 22.51 | 17.46 | 11.11 | 23.78 | 0 | 73.33 | 21.81 | 0 | 0 | 3.86 |
| Carlet | 06/05/2026 | 4.44 | N | 17.63 | 17.34 | 12.84 | 23.12 | 0 | 72.89 | 23.2 | 11.7 | 0.1 | 4.01 |
| Llutxent | 06/05/2026 | 7.63 | N | 34.45 | 15.32 | 11.85 | 18.79 | 0 | 79.39 | 20.96 | 0 | 0 | 3.37 |
| Requena | 06/05/2026 | 5.6 | N | 24.72 | 13.43 | 6.63 | 21.73 | 0.5 | 68.52 | 29.1 | 12.36 | 0 | 4.77 |
| Algimia de Alfara | 06/05/2026 | 4.07 | E | 20.89 | 15.87 | 8.52 | 21.52 | 0 | 66.8 | 28.47 | 0 | 0 | 4.37 |
| Valencia - UPV | 06/05/2026 | 5.79 | E | 23.89 | 17.3 | 12.97 | 20.83 | 0 | 63.91 | 21.08 | 0 | 0 | 3.79 |
| Algemesí | 06/05/2026 | 3.3 | E | 16.23 | 17.23 | 12.15 | 22.65 | 0 | 70.8 | 22 | 12 | 0 | 3.71 |
| Picassent | 06/05/2026 | 2.96 | E | 17.22 | 16.29 | 10.6 | 22.39 | 0 | 71 | 24.71 | 11.8 | 0 | 3.97 |
| Montesa | 06/05/2026 | 1.2 | E | 10.97 | 16.47 | 12.82 | 23.06 | 0 | 76.8 | 18.33 | 10.79 | 0.5 | 3.07 |
| Xàtiva | 06/05/2026 | 2.46 | E | 21.48 | 17.17 | 11.89 | 24.11 | 0 | 74 | 20.36 | 11.45 | 0 | 3.51 |
| Llíria | 06/05/2026 | 4.17 | E | 23.67 | 15.55 | 8.48 | 22.79 | 0 | 68.59 | 26.8 | 12.54 | 0 | 4.32 |
| Sagunt | 06/05/2026 | 5.57 | E | 19.97 | 17.05 | 12.31 | 20.99 | 0 | 64.4 | 24.77 | 12.38 | 0 | 4.16 |
| Campo Arcís | 06/05/2026 | 4.47 | E | 24.2 | 13.61 | 6.69 | 21.54 | 1.5 | 71.1 | 23.45 | 12.02 | 0 | 3.99 |
| Villalonga | 06/05/2026 | 2.72 | E | 13.76 | 16.61 | 12.25 | 22.61 | 0 | 86.3 | 14.49 | 11.58 | 0 | 2.59 |
| Gandía | 06/05/2026 | 3.45 | NE | 19.16 | 16.65 | 13.2 | 20.71 | 0 | 78.1 | 18.2 | 11.84 | 0 | 3.11 |
| Bolbaite | 06/05/2026 | 3.34 | N | 20.25 | 15.88 | 11.46 | 22.89 | 0 | 78.1 | 14.22 | 10.64 | 0.82 | 2.86 |
| Bétera | 06/05/2026 | 5.55 | SO | 24.38 | 15.77 | 10.02 | 21.45 | 0 | 69.85 | 23.82 | 12.42 | 0 | 4 |
| Chulilla | 06/05/2026 | 4.92 | S | 23 | 14.66 | 8.9 | 21.97 | 0 | 70.1 | 27.5 | 12.65 | 0 | 4.41 |
| Godelleta | 06/05/2026 | 3.14 | SE | 15.6 | 15.3 | 10.22 | 22 | 0 | 76.45 | 20.1 | 12.03 | 0.8 | 3.4 |
| Bèlgida | 06/05/2026 | 5.33 | E | 22.68 | 15.96 | 12.08 | 21.14 | 0 | 80.6 | 21.89 | 11.79 | 0 | 3.61 |
| Polinyà de Xúquer | 06/05/2026 | 3.55 | E | 20.25 | 17.18 | 12.22 | 22.15 | 0 | 72.9 | 21.17 | 11.72 | 0 | 3.58 |
| Benifaió | 06/05/2026 | 3.16 | E | 21.38 | 17.37 | 11.85 | 22.92 | 0 | 67.98 | 26.13 | 12.02 | 0 | 4.24 |
| Cheste | 06/05/2026 | 1.87 | SE | 13.23 | 14.21 | 7.27 | 22.01 | 0 | 75.1 | 22.03 | 12.22 | 0 | 3.4 |
| Tavernes de la Valldigna | 06/05/2026 | 4.88 | E | 19.37 | 17.53 | 12.85 | 21.79 | 0 | 73 | 23.58 | 11.71 | 0 | 3.94 |
| Castelló | 06/05/2026 | 1.48 | SE | 12.81 | 17.23 | 12.46 | 23.74 | 0 | 73.7 | 16.26 | 10.57 | 0 | 2.87 |
© Copyright 2011, Instituto Valenciano de Investigaciones Agrarias.
Los datos meteorológicos ofrecidos es esta página son informativos, por lo que carecen de carácter oficial. Los datos son publicados automáticamente y, por lo tanto, pueden no estar sujetos a una completa validación.
|
Cargando ...espere por favor... |